Terminal Aerodrome Forecast
Issued by NWS Pueblo, CO

Current Version | Previous Version | Text Only | Print | Product List | Glossary On
Versions: 1 2 3 4 5 6 7 8 9 10 11 12 13 14 15 16 17 18 19
000
FTUS45 KPUB 191121
TAFCOS
TAF
KCOS 191121Z 1912/2012 35009KT P6SM SKC
     FM191700 16007KT P6SM FEW200
     FM200100 VRB06KT P6SM BKN170
     FM200400 35009KT P6SM SCT040 BKN110
     FM200900 01007KT P6SM VCSH SCT020 BKN040=

USA.gov is the U.S. government's official web portal to all federal, state and local government web resources and services.